Time;durP1;ratioP1;P1;durP2;ratioP2;P2;SDS_P1;SDS_P2;PMS_P1;PMS_P2;Temp;Humidity;BMP_temperature;BMP_pressure;BME280_temperature;BME280_humidity;BME280_pressure;Samples;Min_cycle;Max_cycle;Signal;HPM_P1;HPM_P2
2023/01/07 00:02:05;;;;;;;1.63;1.07;;;;;;;-144.22;100.00;60274.75;6290295;28;20254;-69
2023/01/07 00:05:08;;;;;;;0.97;0.97;;;;;;;-144.22;100.00;60274.75;6285674;28;20229;-69
2023/01/07 00:08:10;;;;;;;1.40;1.30;;;;;;;-144.22;100.00;60274.75;6296466;28;20320;-69
2023/01/07 00:11:16;;;;;;;3.13;1.10;;;;;;;6.77;100.00;60274.75;6274175;28;20298;-68
2023/01/07 00:14:18;;;;;;;1.70;1.47;;;;;;;-144.22;100.00;60274.75;6292194;28;20363;-69
2023/01/07 00:17:20;;;;;;;1.47;1.17;;;;;;;6.78;100.00;60274.75;6288654;28;20786;-68
2023/01/07 00:20:22;;;;;;;1.40;1.30;;;;;;;7.47;100.00;60274.75;6294663;28;20214;-69
2023/01/07 00:23:28;;;;;;;2.03;1.60;;;;;;;6.82;100.00;60274.75;6300441;28;20214;-67
2023/01/07 00:26:32;;;;;;;1.33;1.13;;;;;;;-144.22;100.00;60274.75;6325185;27;20269;-69
2023/01/07 00:29:34;;;;;;;1.87;1.30;;;;;;;-144.22;100.00;60274.75;6271295;28;20268;-68
2023/01/07 00:32:58;;;;;;;1.70;1.20;;;;;;;6.52;100.00;60274.75;6262954;28;20212;-69
2023/01/07 00:36:02;;;;;;;2.00;1.40;;;;;;;-144.22;100.00;60274.75;6291863;28;20234;-68
2023/01/07 00:39:11;;;;;;;1.30;1.20;;;;;;;-144.22;100.00;60274.75;6267082;28;20299;-69
2023/01/07 00:45:35;;;;;;;2.27;1.53;;;;;;;6.41;100.00;60274.75;6288044;28;20309;-68
2023/01/07 00:48:37;;;;;;;1.50;1.30;;;;;;;6.74;100.00;60274.75;6292627;28;20744;-68
2023/01/07 00:51:39;;;;;;;2.00;1.90;;;;;;;7.47;100.00;60274.75;6289299;28;20717;-69
2023/01/07 00:54:41;;;;;;;2.83;2.03;;;;;;;-144.22;100.00;60274.75;6269899;28;20435;-69
2023/01/07 00:57:44;;;;;;;2.17;1.63;;;;;;;-144.22;100.00;60274.75;6293952;28;20225;-69
2023/01/07 01:00:47;;;;;;;2.03;1.87;;;;;;;-144.22;100.00;60274.75;6274175;28;20661;-69
2023/01/07 01:03:49;;;;;;;1.73;1.60;;;;;;;-144.22;100.00;60274.75;6278100;28;20228;-69
2023/01/07 01:06:51;;;;;;;1.67;1.40;;;;;;;6.36;100.00;60274.75;6270081;28;20229;-69
2023/01/07 01:09:53;;;;;;;2.57;1.50;;;;;;;-144.22;100.00;60274.75;6274552;28;20866;-69
2023/01/07 01:12:56;;;;;;;1.90;1.40;;;;;;;-144.22;100.00;60274.75;6284235;28;20637;-69
2023/01/07 01:15:58;;;;;;;1.63;1.50;;;;;;;5.80;100.00;60274.75;6258930;28;20228;-69
2023/01/07 01:19:00;;;;;;;2.77;1.57;;;;;;;5.77;100.00;60274.75;6278878;28;20297;-70
2023/01/07 01:22:02;;;;;;;2.10;1.80;;;;;;;5.83;100.00;60274.75;6274904;28;20632;-69
2023/01/07 01:25:05;;;;;;;2.37;1.93;;;;;;;5.70;100.00;60274.75;6266482;28;20237;-69
2023/01/07 01:28:07;;;;;;;2.30;2.10;;;;;;;5.69;100.00;60274.75;6291093;28;20285;-69
2023/01/07 01:31:09;;;;;;;2.70;2.27;;;;;;;-144.22;100.00;60274.75;6297422;28;20742;-69
2023/01/07 01:34:19;;;;;;;2.40;1.90;;;;;;;-144.22;100.00;60274.75;6287554;28;20229;-69
2023/01/07 01:37:22;;;;;;;1.60;1.50;;;;;;;-144.22;100.00;60274.75;6268653;28;20239;-69
2023/01/07 01:40:28;;;;;;;2.13;1.70;;;;;;;5.72;100.00;60274.75;6275820;28;20785;-69
2023/01/07 01:43:37;;;;;;;1.63;1.53;;;;;;;-144.22;100.00;60274.75;6261686;28;20234;-68
2023/01/07 01:46:43;;;;;;;1.27;1.17;;;;;;;5.43;100.00;60274.75;6277320;28;20708;-68
2023/01/07 01:49:52;;;;;;;1.90;1.20;;;;;;;-144.22;100.00;60274.75;6274483;28;20631;-69
2023/01/07 01:53:09;;;;;;;1.97;1.77;;;;;;;4.93;100.00;60274.75;6257244;28;20225;-69
2023/01/07 01:56:29;;;;;;;4.67;2.80;;;;;;;-144.22;100.00;60274.75;6269169;28;20387;-69
2023/01/07 01:59:35;;;;;;;3.17;2.00;;;;;;;5.38;100.00;60274.75;6279224;28;20220;-69
2023/01/07 02:02:48;;;;;;;2.17;1.50;;;;;;;-144.22;100.00;60274.75;6271514;28;20226;-68
2023/01/07 02:05:50;;;;;;;2.43;1.70;;;;;;;5.47;100.00;60274.75;6280955;28;20370;-69
2023/01/07 02:08:52;;;;;;;1.70;1.40;;;;;;;-144.22;100.00;60274.75;6271277;28;20363;-68
2023/01/07 02:12:22;;;;;;;1.50;1.23;;;;;;;5.34;100.00;60274.75;6281464;28;20226;-68
2023/01/07 02:15:52;;;;;;;1.87;1.20;;;;;;;-144.22;100.00;60274.75;6295476;28;20304;-68
2023/01/07 02:19:04;;;;;;;1.53;1.30;;;;;;;4.88;100.00;60274.75;6294132;28;20258;-68
2023/01/07 02:22:25;;;;;;;3.37;1.27;;;;;;;-144.22;100.00;60274.75;6272887;28;20248;-69
2023/01/07 02:25:48;;;;;;;1.27;1.17;;;;;;;188.01;100.00;60274.75;6272003;28;20246;-68
2023/01/07 02:29:18;;;;;;;1.67;1.13;;;;;;;-144.22;100.00;60274.75;6260534;28;20873;-69
2023/01/07 02:32:38;;;;;;;1.60;1.40;;;;;;;-144.22;100.00;60274.75;6280434;28;20303;-68
2023/01/07 02:36:03;;;;;;;1.83;1.30;;;;;;;-144.22;100.00;60274.75;6281141;28;20221;-69
2023/01/07 02:39:37;;;;;;;1.43;1.33;;;;;;;4.77;100.00;60274.75;6276464;28;20227;-69
2023/01/07 02:42:57;;;;;;;1.80;1.57;;;;;;;-144.22;100.00;60274.75;6290309;28;20220;-69
2023/01/07 02:46:09;;;;;;;3.10;2.80;;;;;;;-144.22;100.00;60274.75;6282378;28;20232;-69
2023/01/07 02:49:15;;;;;;;3.57;2.40;;;;;;;5.03;100.00;60274.75;6272823;28;20774;-68
2023/01/07 02:52:24;;;;;;;2.07;1.60;;;;;;;-144.22;100.00;60274.75;6273140;28;20354;-68
2023/01/07 02:55:51;;;;;;;2.40;1.20;;;;;;;5.48;100.00;60274.75;6276677;28;20227;-68
2023/01/07 02:59:10;;;;;;;3.20;1.87;;;;;;;-144.22;100.00;60274.75;6283042;28;20223;-69
2023/01/07 03:02:22;;;;;;;1.80;1.50;;;;;;;-144.22;100.00;60274.75;6279330;28;20608;-69
2023/01/07 03:05:59;;;;;;;1.97;1.60;;;;;;;-144.22;100.00;60274.75;6279248;28;20216;-68
2023/01/07 03:09:21;;;;;;;2.40;2.17;;;;;;;-144.22;100.00;60274.75;6286108;28;20203;-67
2023/01/07 03:12:49;;;;;;;2.03;1.83;;;;;;;-144.22;100.00;60274.75;6323099;27;20209;-68
2023/01/07 03:16:26;;;;;;;1.93;1.40;;;;;;;-144.22;100.00;60274.75;6277211;28;20216;-68
2023/01/07 03:19:32;;;;;;;1.87;1.63;;;;;;;-144.22;100.00;60274.75;6263887;28;20589;-70
2023/01/07 03:22:38;;;;;;;1.10;1.00;;;;;;;-144.22;100.00;60274.75;6281736;28;20228;-69
2023/01/07 03:25:44;;;;;;;1.93;1.47;;;;;;;-144.22;100.00;60274.75;6277329;28;20237;-68
2023/01/07 03:28:48;;;;;;;1.40;1.30;;;;;;;-144.22;100.00;60274.75;6289387;28;20291;-68
2023/01/07 03:32:13;;;;;;;2.23;1.60;;;;;;;-144.22;100.00;60274.75;6268512;28;20584;-69
2023/01/07 03:35:17;;;;;;;2.83;2.00;;;;;;;5.72;100.00;60274.75;6288599;28;20789;-68
2023/01/07 03:38:22;;;;;;;1.83;1.50;;;;;;;5.70;100.00;60274.75;6290015;28;20367;-69
2023/01/07 03:44:58;;;;;;;1.70;1.47;;;;;;;5.65;100.00;60274.75;6210836;28;20736;-68
2023/01/07 03:48:03;;;;;;;2.20;1.60;;;;;;;5.62;100.00;60274.75;6280098;28;20244;-69
2023/01/07 03:51:10;;;;;;;3.10;2.13;;;;;;;5.65;100.00;60274.75;6274238;28;20261;-69
2023/01/07 03:54:12;;;;;;;2.77;1.67;;;;;;;5.66;100.00;60274.75;6293468;28;20303;-69
2023/01/07 03:57:14;;;;;;;1.90;1.40;;;;;;;5.66;100.00;60274.75;6295761;28;20221;-69
2023/01/07 04:00:17;;;;;;;1.57;1.30;;;;;;;5.65;100.00;60274.75;6293386;28;20666;-68
2023/01/07 04:03:27;;;;;;;1.40;1.27;;;;;;;5.66;100.00;60274.75;6270888;28;20590;-69
2023/01/07 04:06:29;;;;;;;1.67;1.57;;;;;;;5.83;100.00;60274.75;6269250;28;20716;-69
2023/01/07 04:09:32;;;;;;;4.07;1.70;;;;;;;5.66;100.00;60274.75;6275238;28;20695;-69
2023/01/07 04:12:34;;;;;;;2.53;1.50;;;;;;;5.69;100.00;60274.75;6273948;28;20731;-69
2023/01/07 04:15:36;;;;;;;2.33;1.70;;;;;;;5.75;100.00;60274.75;6272749;28;20220;-69
2023/01/07 04:18:39;;;;;;;2.67;1.90;;;;;;;5.78;100.00;60274.75;6273724;28;20220;-68
2023/01/07 04:21:41;;;;;;;1.93;1.63;;;;;;;5.78;100.00;60274.75;6294671;28;20625;-68
2023/01/07 04:24:43;;;;;;;2.70;1.70;;;;;;;5.81;100.00;60274.75;6278144;28;20309;-69
2023/01/07 04:27:48;;;;;;;1.73;1.20;;;;;;;5.80;100.00;60274.75;6281100;28;20310;-69
2023/01/07 04:30:50;;;;;;;1.57;1.33;;;;;;;5.85;100.00;60274.75;6286123;28;20265;-69
2023/01/07 04:33:53;;;;;;;3.07;2.17;;;;;;;5.82;100.00;60274.75;6274675;28;20289;-69
2023/01/07 04:36:55;;;;;;;2.37;1.40;;;;;;;5.81;100.00;60274.75;6278546;28;20216;-69
2023/01/07 04:39:57;;;;;;;1.60;1.50;;;;;;;5.80;100.00;60274.75;6294070;28;20231;-68
2023/01/07 04:43:00;;;;;;;3.67;1.50;;;;;;;5.78;100.00;60274.75;6277739;28;20222;-69
2023/01/07 04:46:03;;;;;;;2.00;1.30;;;;;;;5.80;100.00;60274.75;6272762;28;20222;-68
2023/01/07 04:49:07;;;;;;;1.67;1.20;;;;;;;5.78;100.00;60274.75;6275935;28;20240;-68
2023/01/07 04:52:09;;;;;;;2.70;1.43;;;;;;;5.80;100.00;60274.75;6270217;28;20238;-69
2023/01/07 04:55:12;;;;;;;1.50;1.07;;;;;;;5.81;100.00;60274.75;6258886;28;20240;-68
2023/01/07 04:58:14;;;;;;;1.67;1.40;;;;;;;6.17;100.00;60274.75;6274535;28;20229;-68
2023/01/07 05:01:17;;;;;;;2.53;1.30;;;;;;;5.76;100.00;60274.75;6296179;28;20229;-69
2023/01/07 05:04:19;;;;;;;2.90;1.57;;;;;;;5.76;100.00;60274.75;6293404;28;20327;-69
2023/01/07 05:07:21;;;;;;;1.60;1.50;;;;;;;-144.22;100.00;60274.75;6273620;28;20275;-69
2023/01/07 05:10:25;;;;;;;1.50;1.40;;;;;;;5.74;100.00;60274.75;6257980;28;20586;-68
2023/01/07 05:13:27;;;;;;;2.30;2.00;;;;;;;5.74;100.00;60274.75;6288618;28;20232;-69
2023/01/07 05:16:30;;;;;;;2.27;1.53;;;;;;;5.77;100.00;60274.75;6268152;28;20241;-69
2023/01/07 05:19:35;;;;;;;2.53;1.80;;;;;;;5.68;100.00;60274.75;6260421;28;20221;-69
2023/01/07 05:22:37;;;;;;;3.30;1.50;;;;;;;5.66;100.00;60274.75;6290503;28;20248;-69
2023/01/07 05:25:40;;;;;;;2.60;1.30;;;;;;;5.65;100.00;60274.75;6270879;28;20235;-69
2023/01/07 05:28:41;;;;;;;2.00;1.60;;;;;;;5.68;100.00;60274.75;6276294;28;20307;-69
2023/01/07 05:31:44;;;;;;;3.67;1.53;;;;;;;-144.22;100.00;60274.75;6269523;28;20249;-69
2023/01/07 05:34:47;;;;;;;1.50;1.40;;;;;;;5.64;100.00;60274.75;6271619;28;20577;-69
2023/01/07 05:37:50;;;;;;;1.30;1.00;;;;;;;5.85;100.00;60274.75;6267727;28;20363;-69
2023/01/07 05:40:53;;;;;;;1.40;1.27;;;;;;;5.58;100.00;60274.75;6277125;28;20226;-69
2023/01/07 05:43:58;;;;;;;1.97;1.27;;;;;;;5.68;100.00;60274.75;6266223;28;20508;-69
2023/01/07 05:47:00;;;;;;;1.20;1.10;;;;;;;-144.22;100.00;60274.75;6275748;28;20378;-69
2023/01/07 05:50:03;;;;;;;1.33;1.20;;;;;;;5.52;100.00;60274.75;6292584;28;20694;-69
2023/01/07 05:53:05;;;;;;;1.97;1.47;;;;;;;5.19;100.00;60274.75;6268038;28;20254;-68
2023/01/07 05:56:07;;;;;;;2.30;1.40;;;;;;;6.17;100.00;60274.75;6290731;28;20222;-68
2023/01/07 05:59:09;;;;;;;1.30;1.20;;;;;;;-144.22;100.00;60274.75;6313915;27;20340;-68
2023/01/07 06:02:11;;;;;;;1.20;1.00;;;;;;;188.01;100.00;60274.75;6306370;27;20237;-69
2023/01/07 06:05:14;;;;;;;1.60;1.10;;;;;;;4.49;100.00;60274.75;6295618;28;20275;-68
2023/01/07 06:08:16;;;;;;;1.23;1.13;;;;;;;4.32;100.00;60274.75;6295427;28;20236;-69
2023/01/07 06:11:18;;;;;;;2.00;1.30;;;;;;;-144.22;100.00;60274.75;6294538;28;20231;-69
2023/01/07 06:14:20;;;;;;;1.20;1.10;;;;;;;-144.22;100.00;60274.75;6289876;28;20230;-69
2023/01/07 06:17:22;;;;;;;1.33;1.20;;;;;;;4.87;100.00;60274.75;6291518;28;20227;-69
2023/01/07 06:20:25;;;;;;;1.57;1.30;;;;;;;6.17;100.00;60274.75;6274484;28;20271;-68
2023/01/07 06:23:27;;;;;;;1.43;1.27;;;;;;;-144.22;100.00;60274.75;6262226;28;20227;-68
2023/01/07 06:26:29;;;;;;;2.43;1.33;;;;;;;3.41;100.00;60274.75;6273811;28;20467;-69
2023/01/07 06:29:31;;;;;;;1.07;0.90;;;;;;;11.36;100.00;60274.75;6277828;28;20580;-69
2023/01/07 06:32:40;;;;;;;1.07;0.97;;;;;;;3.04;100.00;60274.75;6295222;28;20588;-69
2023/01/07 06:35:44;;;;;;;0.90;0.80;;;;;;;-144.22;100.00;60274.75;6294104;28;20226;-68
2023/01/07 06:38:46;;;;;;;2.10;0.80;;;;;;;-144.22;100.00;60274.75;6288615;28;20280;-69
2023/01/07 06:41:48;;;;;;;1.50;1.07;;;;;;;-144.22;100.00;60274.75;6297656;28;20225;-68
2023/01/07 06:44:50;;;;;;;2.07;1.60;;;;;;;-144.22;100.00;60274.75;6293344;28;20372;-68
2023/01/07 06:47:52;;;;;;;4.20;1.77;;;;;;;-144.22;100.00;60274.75;6292276;28;20229;-69
2023/01/07 06:50:54;;;;;;;5.20;2.03;;;;;;;-144.22;100.00;60274.75;6283353;28;20221;-68
2023/01/07 06:53:57;;;;;;;2.30;1.60;;;;;;;-144.22;100.00;60274.75;6295834;28;20261;-69
2023/01/07 06:56:59;;;;;;;1.80;1.40;;;;;;;-144.22;100.00;60274.75;6277991;28;20574;-67
2023/01/07 07:00:02;;;;;;;1.57;1.47;;;;;;;-144.22;100.00;60274.75;6286326;28;20224;-68
2023/01/07 07:03:04;;;;;;;1.50;1.40;;;;;;;2.25;100.00;60274.75;6293499;28;20212;-68
2023/01/07 07:06:07;;;;;;;2.20;1.43;;;;;;;2.24;100.00;60274.75;6281200;28;20259;-68
2023/01/07 07:09:09;;;;;;;2.07;1.60;;;;;;;-144.22;100.00;60274.75;6282525;28;20221;-69
2023/01/07 07:12:12;;;;;;;1.83;1.50;;;;;;;2.18;100.00;60274.75;6289332;28;20210;-69
2023/01/07 07:15:14;;;;;;;3.37;1.73;;;;;;;2.22;100.00;60274.75;6287124;28;20296;-68
2023/01/07 07:18:16;;;;;;;2.00;1.70;;;;;;;2.27;100.00;60274.75;6287610;28;20209;-69
2023/01/07 07:21:19;;;;;;;2.27;1.60;;;;;;;-144.22;100.00;60274.75;6296211;28;20590;-67
2023/01/07 07:24:21;;;;;;;2.93;1.80;;;;;;;-144.22;100.00;60274.75;6290341;28;20418;-68
2023/01/07 07:27:23;;;;;;;1.73;1.33;;;;;;;-144.22;100.00;60274.75;6250818;28;20681;-69
2023/01/07 07:30:25;;;;;;;1.30;0.93;;;;;;;-144.22;100.00;60274.75;6271477;28;20241;-68
2023/01/07 07:33:47;;;;;;;1.63;1.00;;;;;;;-144.22;100.00;60274.75;6262240;28;20239;-69
2023/01/07 07:36:49;;;;;;;1.53;0.90;;;;;;;-144.22;100.00;60274.75;6268018;28;20236;-69
2023/01/07 07:39:52;;;;;;;0.80;0.80;;;;;;;-144.22;100.00;60274.75;6268024;28;20306;-69
2023/01/07 07:42:54;;;;;;;1.60;0.90;;;;;;;-144.22;100.00;60274.75;6269183;28;20222;-69
2023/01/07 07:46:13;;;;;;;4.50;1.20;;;;;;;2.58;100.00;60274.75;6261857;28;20570;-68
2023/01/07 07:49:16;;;;;;;1.73;1.10;;;;;;;-144.22;100.00;60274.75;6265714;28;20226;-69
2023/01/07 07:52:18;;;;;;;2.40;2.00;;;;;;;2.67;100.00;60274.75;6269448;28;20353;-68
2023/01/07 07:55:20;;;;;;;2.13;1.77;;;;;;;-144.22;100.00;60274.75;6270006;28;20749;-69
2023/01/07 07:58:27;;;;;;;2.33;1.60;;;;;;;-144.22;100.00;60274.75;6267101;28;20257;-68
2023/01/07 08:01:29;;;;;;;2.03;1.23;;;;;;;-144.22;100.00;60274.75;6272354;28;20275;-68
2023/01/07 08:04:33;;;;;;;1.70;1.30;;;;;;;-144.22;100.00;60274.75;6267673;28;20229;-68
2023/01/07 08:07:35;;;;;;;3.03;1.50;;;;;;;-144.22;100.00;60274.75;6265745;28;20842;-67
2023/01/07 08:10:39;;;;;;;1.23;1.13;;;;;;;-144.22;100.00;60274.75;6269145;28;20816;-69
2023/01/07 08:13:41;;;;;;;1.27;1.17;;;;;;;-144.22;100.00;60274.75;6267773;28;20234;-69
2023/01/07 08:16:43;;;;;;;1.13;1.02;;;;;;;-144.22;100.00;60274.75;6263894;28;20775;-71
2023/01/07 08:19:45;;;;;;;2.50;0.97;;;;;;;-144.22;100.00;60274.75;6261222;28;20222;-70
2023/01/07 08:22:47;;;;;;;2.20;0.80;;;;;;;-144.22;100.00;60274.75;6264403;28;20230;-69
2023/01/07 08:25:49;;;;;;;1.20;1.07;;;;;;;-144.22;100.00;60274.75;6278009;28;20206;-67
2023/01/07 08:28:51;;;;;;;1.10;1.00;;;;;;;-144.22;100.00;60274.75;6256536;28;20226;-67
2023/01/07 08:31:53;;;;;;;3.40;0.90;;;;;;;-144.22;100.00;60274.75;6243683;28;20306;-69
2023/01/07 08:34:56;;;;;;;1.57;1.00;;;;;;;-144.22;100.00;60274.75;6234592;28;20227;-67
2023/01/07 08:38:06;;;;;;;1.00;0.90;;;;;;;-144.22;100.00;60274.75;6238614;28;20224;-69
2023/01/07 08:41:08;;;;;;;1.13;1.00;;;;;;;-144.22;100.00;60274.75;6242166;28;20541;-69
2023/01/07 08:44:10;;;;;;;1.00;0.90;;;;;;;-144.22;100.00;60274.75;6240065;28;20238;-68
2023/01/07 08:47:13;;;;;;;0.80;0.80;;;;;;;-144.22;100.00;60274.75;6242481;28;20232;-67
2023/01/07 08:50:15;;;;;;;1.27;1.00;;;;;;;-144.22;100.00;60274.75;6241015;28;20737;-69
2023/01/07 08:53:22;;;;;;;1.33;1.17;;;;;;;-144.22;100.00;60274.75;6247651;28;20227;-69
2023/01/07 08:56:24;;;;;;;1.10;1.00;;;;;;;-144.22;100.00;60274.75;6241088;28;20227;-69
2023/01/07 08:59:26;;;;;;;1.20;1.10;;;;;;;4.18;100.00;60274.75;6262834;28;20265;-68
2023/01/07 09:02:28;;;;;;;2.47;1.00;;;;;;;4.68;100.00;60274.75;6222342;28;20990;-69
2023/01/07 09:05:30;;;;;;;1.13;1.03;;;;;;;-144.22;100.00;60274.75;6243683;28;20221;-69
2023/01/07 09:08:35;;;;;;;1.33;1.00;;;;;;;-144.22;100.00;60274.75;6238634;28;20704;-68
2023/01/07 09:11:37;;;;;;;1.40;1.17;;;;;;;-144.22;100.00;60274.75;6238839;28;20654;-68
2023/01/07 09:14:40;;;;;;;1.27;0.80;;;;;;;-144.22;100.00;60274.75;6245751;28;20228;-69
2023/01/07 09:17:41;;;;;;;1.03;0.93;;;;;;;-144.22;100.00;60274.75;6245377;28;20233;-69
2023/01/07 09:20:44;;;;;;;0.73;0.73;;;;;;;-144.22;100.00;60274.75;6241813;28;20265;-69
2023/01/07 09:23:46;;;;;;;1.17;0.73;;;;;;;-144.22;100.00;60274.75;6243500;28;20229;-68
2023/01/07 09:26:48;;;;;;;1.47;1.00;;;;;;;-144.22;100.00;60274.75;6258775;28;20786;-69
2023/01/07 09:29:50;;;;;;;0.80;0.80;;;;;;;-144.22;100.00;60274.75;6289154;28;20221;-69
2023/01/07 09:32:52;;;;;;;1.57;1.27;;;;;;;-144.22;100.00;60274.75;6290895;28;20836;-69
2023/01/07 09:35:54;;;;;;;0.80;0.70;;;;;;;-144.22;100.00;60274.75;6286468;28;20536;-69
2023/01/07 09:38:56;;;;;;;0.80;0.80;;;;;;;7.35;100.00;60274.75;6283702;28;21010;-69
2023/01/07 09:42:16;;;;;;;1.00;0.90;;;;;;;-144.22;100.00;60274.75;6262074;28;20331;-69
2023/01/07 09:45:24;;;;;;;1.00;0.73;;;;;;;-144.22;100.00;60274.75;6273564;28;20316;-69
2023/01/07 09:48:45;;;;;;;0.93;0.90;;;;;;;-144.22;100.00;60274.75;6270759;28;20232;-69
2023/01/07 09:51:55;;;;;;;0.60;0.60;;;;;;;8.14;100.00;60274.75;6264407;28;20346;-69
2023/01/07 09:55:07;;;;;;;1.00;0.73;;;;;;;-144.22;100.00;60274.75;6295151;28;20226;-69
2023/01/07 09:58:17;;;;;;;0.83;0.80;;;;;;;-144.22;100.00;60274.75;6295493;28;20225;-69
2023/01/07 10:01:43;;;;;;;1.23;0.93;;;;;;;-144.22;100.00;60274.75;6254352;28;20221;-69
2023/01/07 10:04:50;;;;;;;0.80;0.80;;;;;;;-144.22;100.00;60274.75;6241969;28;20306;-69
2023/01/07 10:08:31;;;;;;;2.37;1.00;;;;;;;-144.22;100.00;60274.75;6293634;28;20275;-69
2023/01/07 10:11:59;;;;;;;1.03;0.90;;;;;;;-144.22;100.00;60274.75;6287328;28;20348;-69
2023/01/07 10:15:18;;;;;;;1.00;0.90;;;;;;;9.05;100.00;60274.75;6288926;28;20231;-69
2023/01/07 10:18:32;;;;;;;1.83;1.00;;;;;;;-144.22;100.00;60274.75;6292692;28;20326;-69
2023/01/07 10:21:34;;;;;;;1.57;1.20;;;;;;;-144.22;100.00;60274.75;6291988;28;20657;-68
2023/01/07 10:24:41;;;;;;;1.10;1.00;;;;;;;-144.22;100.00;60274.75;6287606;28;20302;-69
2023/01/07 10:27:45;;;;;;;1.77;0.90;;;;;;;-144.22;100.00;60274.75;6272368;28;20599;-69
2023/01/07 10:30:51;;;;;;;1.80;0.90;;;;;;;-144.22;100.00;60274.75;6272256;28;20231;-69
2023/01/07 10:33:56;;;;;;;1.53;1.27;;;;;;;-144.22;100.00;60274.75;6289239;28;20351;-69
2023/01/07 10:37:05;;;;;;;1.47;0.73;;;;;;;-144.22;100.00;60274.75;6274237;28;20217;-69
2023/01/07 10:40:19;;;;;;;2.10;1.20;;;;;;;-144.22;100.00;60274.75;6284973;28;20256;-69
2023/01/07 10:43:44;;;;;;;0.73;0.73;;;;;;;-144.22;100.00;60274.75;6273319;28;20699;-69
2023/01/07 10:46:55;;;;;;;0.90;0.80;;;;;;;-144.22;100.00;60274.75;6287796;28;20852;-68
2023/01/07 10:50:18;;;;;;;1.37;1.00;;;;;;;-144.22;100.00;60274.75;6287776;28;20238;-69
2023/01/07 10:53:57;;;;;;;1.90;0.90;;;;;;;-144.22;100.00;60274.75;6298205;28;20231;-68
2023/01/07 10:57:09;;;;;;;0.80;0.80;;;;;;;-144.22;100.00;60274.75;6299445;28;20319;-68
2023/01/07 11:00:15;;;;;;;1.20;1.10;;;;;;;21.74;100.00;60274.75;6273746;28;20229;-68
2023/01/07 11:03:21;;;;;;;2.27;1.73;;;;;;;-144.22;100.00;60274.75;6287187;28;20235;-69
2023/01/07 11:06:48;;;;;;;3.67;3.00;;;;;;;21.74;100.00;60274.75;6273807;28;20230;-69
2023/01/07 11:09:52;;;;;;;3.53;2.90;;;;;;;-144.22;100.00;60274.75;6245645;28;20230;-69
2023/01/07 11:13:02;;;;;;;2.63;2.30;;;;;;;-144.22;100.00;60274.75;6297577;28;20881;-69
2023/01/07 11:16:12;;;;;;;2.90;2.53;;;;;;;-144.22;100.00;60274.75;6293511;28;20244;-69
2023/01/07 11:19:14;;;;;;;4.43;3.30;;;;;;;188.01;100.00;60274.75;6289493;28;20232;-68
2023/01/07 11:22:26;;;;;;;4.43;3.40;;;;;;;-144.22;100.00;60274.75;6288614;28;20221;-69
2023/01/07 11:25:28;;;;;;;3.70;2.93;;;;;;;188.01;100.00;60274.75;6275535;28;20622;-68
2023/01/07 11:28:31;;;;;;;3.47;3.17;;;;;;;-144.22;100.00;60274.75;6289963;28;20237;-68
2023/01/07 11:31:50;;;;;;;4.23;3.27;;;;;;;-144.22;100.00;60274.75;6290879;28;20720;-69
2023/01/07 11:35:03;;;;;;;2.90;2.60;;;;;;;-144.22;100.00;60274.75;6264016;28;20981;-68
2023/01/07 11:38:26;;;;;;;3.37;3.07;;;;;;;-144.22;100.00;60274.75;6287723;28;20221;-69
2023/01/07 11:41:28;;;;;;;3.43;2.90;;;;;;;-144.22;100.00;60274.75;6285383;28;20594;-68
2023/01/07 11:44:30;;;;;;;2.73;2.53;;;;;;;188.01;100.00;60274.75;6276082;28;20309;-69
2023/01/07 11:47:32;;;;;;;4.03;3.00;;;;;;;-144.22;100.00;60274.75;6289862;28;20236;-68
2023/01/07 11:50:40;;;;;;;3.33;2.30;;;;;;;-144.22;100.00;60274.75;6290854;28;20268;-68
2023/01/07 11:53:49;;;;;;;4.10;2.97;;;;;;;10.35;100.00;60274.75;6290835;28;20221;-68
2023/01/07 11:57:08;;;;;;;4.10;3.60;;;;;;;-144.22;100.00;60274.75;6289457;28;20229;-69
2023/01/07 12:00:18;;;;;;;3.43;3.10;;;;;;;-144.22;100.00;60274.75;6275336;28;20229;-68
2023/01/07 12:03:20;;;;;;;3.97;3.50;;;;;;;10.40;100.00;60274.75;6292343;28;20224;-69
2023/01/07 12:06:29;;;;;;;5.50;4.20;;;;;;;-144.22;100.00;60274.75;6292940;28;20363;-69
2023/01/07 12:09:38;;;;;;;4.20;3.65;;;;;;;-144.22;100.00;60274.75;6288732;28;20633;-69
2023/01/07 12:12:42;;;;;;;4.47;3.50;;;;;;;10.67;100.00;60274.75;6288060;28;20403;-68
2023/01/07 12:16:06;;;;;;;7.00;3.90;;;;;;;-144.22;100.00;60274.75;6291857;28;20321;-69
2023/01/07 12:19:38;;;;;;;4.60;3.57;;;;;;;-144.22;100.00;60274.75;6268340;28;20617;-68
2023/01/07 12:22:58;;;;;;;3.67;3.33;;;;;;;10.76;100.00;60274.75;6300167;28;20306;-69
2023/01/07 12:26:06;;;;;;;5.00;3.50;;;;;;;-144.22;100.00;60274.75;6292099;28;20262;-69
2023/01/07 12:29:40;;;;;;;4.20;3.30;;;;;;;-144.22;100.00;60274.75;6278093;28;20720;-68
2023/01/07 12:32:52;;;;;;;3.90;3.43;;;;;;;-144.22;100.00;60274.75;6289797;28;20218;-69
2023/01/07 12:36:00;;;;;;;4.10;3.67;;;;;;;11.69;100.00;60274.75;6281870;28;20303;-69
2023/01/07 12:39:09;;;;;;;5.30;4.40;;;;;;;-144.22;100.00;60274.75;6265415;28;20267;-68
2023/01/07 12:42:21;;;;;;;5.17;3.97;;;;;;;-144.22;100.00;60274.75;6274546;28;20686;-69
2023/01/07 12:45:59;;;;;;;4.40;4.00;;;;;;;-144.22;100.00;60274.75;6287734;28;20210;-68
2023/01/07 12:49:04;;;;;;;4.57;4.15;;;;;;;12.58;100.00;60274.75;6269055;28;20475;-68
2023/01/07 12:52:15;;;;;;;4.37;3.73;;;;;;;-144.22;100.00;60274.75;6279238;28;20603;-69
2023/01/07 12:55:46;;;;;;;5.83;4.13;;;;;;;13.96;100.00;60274.75;6269634;28;20619;-69
2023/01/07 12:58:58;;;;;;;4.70;3.77;;;;;;;-144.22;100.00;60274.75;6270912;28;20218;-68
2023/01/07 13:02:31;;;;;;;4.10;3.70;;;;;;;-144.22;100.00;60274.75;6287338;28;20260;-68
2023/01/07 13:05:47;;;;;;;4.63;3.63;;;;;;;-144.22;100.00;60274.75;6264354;28;20821;-68
2023/01/07 13:08:57;;;;;;;5.43;3.97;;;;;;;-144.22;100.00;60274.75;6275813;28;20225;-68
2023/01/07 13:15:43;;;;;;;4.47;3.43;;;;;;;11.98;100.00;60274.75;6290920;28;20849;-68
2023/01/07 13:18:45;;;;;;;4.90;3.60;;;;;;;-144.22;100.00;60274.75;6288474;28;20573;-68
2023/01/07 13:21:48;;;;;;;4.93;3.70;;;;;;;-144.22;100.00;60274.75;6269133;28;20230;-68
2023/01/07 13:25:11;;;;;;;3.83;2.90;;;;;;;10.60;100.00;60274.75;6289104;28;20237;-68
2023/01/07 13:28:25;;;;;;;3.53;3.10;;;;;;;-144.22;100.00;60274.75;6273368;28;20271;-68
2023/01/07 13:31:41;;;;;;;4.00;3.30;;;;;;;-144.22;100.00;60274.75;6289991;28;20231;-68
2023/01/07 13:34:48;;;;;;;4.23;3.33;;;;;;;-144.22;100.00;60274.75;6290064;28;20232;-68
2023/01/07 13:38:21;;;;;;;4.47;2.80;;;;;;;9.80;100.00;60274.75;6286591;28;21126;-68
2023/01/07 13:42:14;;;;;;;3.37;2.80;;;;;;;-144.22;100.00;60274.75;6290166;28;20223;-68
2023/01/07 13:45:20;;;;;;;4.60;3.07;;;;;;;11.36;100.00;60274.75;6201717;28;20314;-68
2023/01/07 13:48:26;;;;;;;3.37;3.03;;;;;;;-144.22;100.00;60274.75;6289212;28;20343;-68
2023/01/07 13:51:31;;;;;;;3.50;2.90;;;;;;;-144.22;100.00;60274.75;6269073;28;20217;-68
2023/01/07 13:54:51;;;;;;;2.97;2.67;;;;;;;-144.22;100.00;60274.75;6279285;28;20217;-68
2023/01/07 13:57:54;;;;;;;3.53;3.03;;;;;;;-144.22;100.00;60274.75;6290025;28;20649;-68
2023/01/07 14:01:06;;;;;;;3.07;2.50;;;;;;;-144.22;100.00;60274.75;6273224;28;20220;-68
2023/01/07 14:04:29;;;;;;;2.77;2.40;;;;;;;-144.22;100.00;60274.75;6289470;28;20245;-68
2023/01/07 14:07:49;;;;;;;4.27;2.87;;;;;;;-144.22;100.00;60274.75;6286984;28;20227;-68
2023/01/07 14:10:53;;;;;;;4.73;3.07;;;;;;;-144.22;100.00;60274.75;6286402;28;20240;-68
2023/01/07 14:14:10;;;;;;;2.93;2.23;;;;;;;-144.22;100.00;60274.75;6285949;28;20627;-68
2023/01/07 14:17:47;;;;;;;3.53;2.77;;;;;;;-144.22;100.00;60274.75;6272659;28;20782;-68
2023/01/07 14:21:20;;;;;;;2.60;2.30;;;;;;;-144.22;100.00;60274.75;6290232;28;20319;-68
2023/01/07 14:24:26;;;;;;;2.93;2.30;;;;;;;8.50;100.00;60274.75;6284267;28;20279;-68
2023/01/07 14:27:30;;;;;;;3.10;2.00;;;;;;;-144.22;100.00;60274.75;6259584;28;20772;-68
2023/01/07 14:30:57;;;;;;;2.43;2.20;;;;;;;-144.22;100.00;60274.75;6291335;28;20223;-68
2023/01/07 14:34:14;;;;;;;3.87;2.40;;;;;;;8.14;100.00;60274.75;6287700;28;20716;-68
2023/01/07 14:37:28;;;;;;;2.20;1.90;;;;;;;-144.22;100.00;60274.75;6293467;28;20735;-68